sensor_id;sensor_type;location;lat;lon;timestamp;P1;durP1;ratioP1;P2;durP2;ratioP2
72404;SDS011;60395;52.020;113.548;2022-09-02T00:01:50;9.80;;;4.78;;
72404;SDS011;60395;52.020;113.548;2022-09-02T00:04:53;10.30;;;4.88;;
72404;SDS011;60395;52.020;113.548;2022-09-02T00:07:56;6.75;;;4.47;;
72404;SDS011;60395;52.020;113.548;2022-09-02T00:11:00;7.88;;;4.72;;
72404;SDS011;60395;52.020;113.548;2022-09-02T00:14:06;6.90;;;4.30;;
72404;SDS011;60395;52.020;113.548;2022-09-02T00:17:12;9.40;;;4.43;;
72404;SDS011;60395;52.020;113.548;2022-09-02T00:20:15;7.18;;;4.60;;
72404;SDS011;60395;52.020;113.548;2022-09-02T00:23:19;6.45;;;4.47;;
72404;SDS011;60395;52.020;113.548;2022-09-02T00:26:26;6.47;;;4.57;;
72404;SDS011;60395;52.020;113.548;2022-09-02T00:29:29;6.05;;;4.32;;
72404;SDS011;60395;52.020;113.548;2022-09-02T00:32:33;11.13;;;4.32;;
72404;SDS011;60395;52.020;113.548;2022-09-02T00:35:36;8.10;;;5.15;;
72404;SDS011;60395;52.020;113.548;2022-09-02T00:38:39;6.20;;;4.10;;
72404;SDS011;60395;52.020;113.548;2022-09-02T00:41:43;9.23;;;4.70;;
72404;SDS011;60395;52.020;113.548;2022-09-02T00:44:47;8.57;;;4.47;;
72404;SDS011;60395;52.020;113.548;2022-09-02T00:47:50;10.50;;;4.75;;
72404;SDS011;60395;52.020;113.548;2022-09-02T00:50:53;11.87;;;4.73;;
72404;SDS011;60395;52.020;113.548;2022-09-02T00:53:57;6.03;;;4.55;;
72404;SDS011;60395;52.020;113.548;2022-09-02T00:57:01;6.53;;;4.70;;
72404;SDS011;60395;52.020;113.548;2022-09-02T01:03:27;7.82;;;5.00;;
72404;SDS011;60395;52.020;113.548;2022-09-02T01:06:32;45.78;;;29.20;;
72404;SDS011;60395;52.020;113.548;2022-09-02T01:09:35;7.55;;;4.90;;
72404;SDS011;60395;52.020;113.548;2022-09-02T01:12:39;16.83;;;5.13;;
72404;SDS011;60395;52.020;113.548;2022-09-02T01:15:44;7.43;;;4.90;;
72404;SDS011;60395;52.020;113.548;2022-09-02T01:18:50;9.30;;;5.07;;
72404;SDS011;60395;52.020;113.548;2022-09-02T01:21:56;6.63;;;4.82;;
72404;SDS011;60395;52.020;113.548;2022-09-02T01:25:02;10.60;;;4.63;;
72404;SDS011;60395;52.020;113.548;2022-09-02T01:28:11;7.80;;;4.10;;
72404;SDS011;60395;52.020;113.548;2022-09-02T01:31:17;8.48;;;4.53;;
72404;SDS011;60395;52.020;113.548;2022-09-02T01:34:20;7.15;;;5.03;;
72404;SDS011;60395;52.020;113.548;2022-09-02T01:37:24;8.88;;;5.15;;
72404;SDS011;60395;52.020;113.548;2022-09-02T01:40:29;9.80;;;4.85;;
72404;SDS011;60395;52.020;113.548;2022-09-02T01:43:33;10.90;;;4.50;;
72404;SDS011;60395;52.020;113.548;2022-09-02T01:46:36;9.15;;;4.45;;
72404;SDS011;60395;52.020;113.548;2022-09-02T01:49:39;8.50;;;4.90;;
72404;SDS011;60395;52.020;113.548;2022-09-02T01:52:45;6.25;;;4.40;;
72404;SDS011;60395;52.020;113.548;2022-09-02T01:55:48;8.02;;;4.45;;
72404;SDS011;60395;52.020;113.548;2022-09-02T01:58:51;7.20;;;5.00;;
72404;SDS011;60395;52.020;113.548;2022-09-02T02:01:54;4.78;;;3.63;;
72404;SDS011;60395;52.020;113.548;2022-09-02T02:04:58;5.15;;;3.25;;
72404;SDS011;60395;52.020;113.548;2022-09-02T02:08:01;7.70;;;4.30;;
72404;SDS011;60395;52.020;113.548;2022-09-02T02:11:05;8.27;;;4.03;;
72404;SDS011;60395;52.020;113.548;2022-09-02T02:14:10;6.38;;;3.90;;
72404;SDS011;60395;52.020;113.548;2022-09-02T02:17:20;19.50;;;12.63;;
72404;SDS011;60395;52.020;113.548;2022-09-02T02:20:23;20.80;;;11.20;;
72404;SDS011;60395;52.020;113.548;2022-09-02T02:26:31;11.48;;;3.92;;
72404;SDS011;60395;52.020;113.548;2022-09-02T02:29:34;10.23;;;4.35;;
72404;SDS011;60395;52.020;113.548;2022-09-02T02:32:38;9.10;;;4.38;;
72404;SDS011;60395;52.020;113.548;2022-09-02T02:35:44;9.25;;;4.32;;
72404;SDS011;60395;52.020;113.548;2022-09-02T02:38:48;9.40;;;4.57;;
72404;SDS011;60395;52.020;113.548;2022-09-02T02:41:51;9.43;;;4.20;;
72404;SDS011;60395;52.020;113.548;2022-09-02T02:44:54;8.52;;;3.97;;
72404;SDS011;60395;52.020;113.548;2022-09-02T02:47:57;7.68;;;4.00;;
72404;SDS011;60395;52.020;113.548;2022-09-02T02:51:01;10.02;;;4.20;;
72404;SDS011;60395;52.020;113.548;2022-09-02T02:54:05;7.65;;;3.72;;
72404;SDS011;60395;52.020;113.548;2022-09-02T02:57:10;14.82;;;4.15;;
72404;SDS011;60395;52.020;113.548;2022-09-02T03:00:15;6.85;;;4.10;;
72404;SDS011;60395;52.020;113.548;2022-09-02T03:03:23;9.35;;;3.90;;
72404;SDS011;60395;52.020;113.548;2022-09-02T03:06:28;10.88;;;4.43;;
72404;SDS011;60395;52.020;113.548;2022-09-02T03:09:32;9.05;;;4.22;;
72404;SDS011;60395;52.020;113.548;2022-09-02T03:12:36;11.15;;;3.63;;
72404;SDS011;60395;52.020;113.548;2022-09-02T03:15:41;7.63;;;3.60;;
72404;SDS011;60395;52.020;113.548;2022-09-02T03:18:45;5.10;;;3.55;;
72404;SDS011;60395;52.020;113.548;2022-09-02T03:21:49;7.95;;;3.63;;
72404;SDS011;60395;52.020;113.548;2022-09-02T03:24:53;7.18;;;3.50;;
72404;SDS011;60395;52.020;113.548;2022-09-02T03:27:57;7.90;;;3.85;;
72404;SDS011;60395;52.020;113.548;2022-09-02T03:31:00;6.75;;;3.53;;
72404;SDS011;60395;52.020;113.548;2022-09-02T03:34:04;4.43;;;3.70;;
72404;SDS011;60395;52.020;113.548;2022-09-02T03:37:08;10.55;;;5.38;;
72404;SDS011;60395;52.020;113.548;2022-09-02T03:40:13;10.90;;;5.72;;
72404;SDS011;60395;52.020;113.548;2022-09-02T03:43:21;15.32;;;3.92;;
72404;SDS011;60395;52.020;113.548;2022-09-02T03:46:25;11.03;;;3.60;;
72404;SDS011;60395;52.020;113.548;2022-09-02T03:49:29;10.50;;;3.70;;
72404;SDS011;60395;52.020;113.548;2022-09-02T03:52:32;6.13;;;3.55;;
72404;SDS011;60395;52.020;113.548;2022-09-02T03:55:35;5.57;;;3.67;;
72404;SDS011;60395;52.020;113.548;2022-09-02T03:58:39;11.50;;;4.15;;
72404;SDS011;60395;52.020;113.548;2022-09-02T04:01:47;12.93;;;7.28;;
72404;SDS011;60395;52.020;113.548;2022-09-02T04:04:50;14.30;;;7.25;;
72404;SDS011;60395;52.020;113.548;2022-09-02T04:07:53;14.48;;;5.30;;
72404;SDS011;60395;52.020;113.548;2022-09-02T04:10:58;8.75;;;3.83;;
72404;SDS011;60395;52.020;113.548;2022-09-02T04:14:06;8.32;;;3.70;;
72404;SDS011;60395;52.020;113.548;2022-09-02T04:17:10;9.23;;;4.10;;
72404;SDS011;60395;52.020;113.548;2022-09-02T04:20:13;7.28;;;3.88;;
72404;SDS011;60395;52.020;113.548;2022-09-02T04:23:18;5.85;;;3.53;;
72404;SDS011;60395;52.020;113.548;2022-09-02T04:26:22;8.25;;;3.95;;
72404;SDS011;60395;52.020;113.548;2022-09-02T04:29:28;8.40;;;3.50;;
72404;SDS011;60395;52.020;113.548;2022-09-02T04:32:34;9.18;;;4.03;;
72404;SDS011;60395;52.020;113.548;2022-09-02T04:35:44;8.25;;;3.97;;
72404;SDS011;60395;52.020;113.548;2022-09-02T04:38:51;6.60;;;3.60;;
72404;SDS011;60395;52.020;113.548;2022-09-02T04:41:58;17.50;;;3.63;;
72404;SDS011;60395;52.020;113.548;2022-09-02T04:45:03;8.82;;;3.90;;
72404;SDS011;60395;52.020;113.548;2022-09-02T04:48:07;10.55;;;3.45;;
72404;SDS011;60395;52.020;113.548;2022-09-02T04:51:12;12.85;;;3.03;;
72404;SDS011;60395;52.020;113.548;2022-09-02T04:54:19;7.50;;;3.28;;
72404;SDS011;60395;52.020;113.548;2022-09-02T04:57:24;7.40;;;3.17;;
72404;SDS011;60395;52.020;113.548;2022-09-02T05:03:32;6.80;;;3.38;;
72404;SDS011;60395;52.020;113.548;2022-09-02T05:06:35;4.25;;;3.13;;
72404;SDS011;60395;52.020;113.548;2022-09-02T05:09:57;13.68;;;4.28;;
72404;SDS011;60395;52.020;113.548;2022-09-02T05:13:05;10.90;;;4.38;;
72404;SDS011;60395;52.020;113.548;2022-09-02T05:16:08;35.27;;;23.57;;
72404;SDS011;60395;52.020;113.548;2022-09-02T05:19:11;14.27;;;4.22;;
72404;SDS011;60395;52.020;113.548;2022-09-02T05:22:20;7.53;;;3.13;;
72404;SDS011;60395;52.020;113.548;2022-09-02T05:25:23;8.93;;;3.42;;
72404;SDS011;60395;52.020;113.548;2022-09-02T05:28:27;10.57;;;3.20;;
72404;SDS011;60395;52.020;113.548;2022-09-02T05:31:31;20.73;;;3.42;;
72404;SDS011;60395;52.020;113.548;2022-09-02T05:34:34;10.38;;;5.05;;
72404;SDS011;60395;52.020;113.548;2022-09-02T05:37:38;10.18;;;4.35;;
72404;SDS011;60395;52.020;113.548;2022-09-02T05:40:42;8.93;;;3.38;;
72404;SDS011;60395;52.020;113.548;2022-09-02T05:43:46;14.17;;;3.67;;
72404;SDS011;60395;52.020;113.548;2022-09-02T05:46:50;8.77;;;3.15;;
72404;SDS011;60395;52.020;113.548;2022-09-02T05:49:54;8.50;;;3.58;;
72404;SDS011;60395;52.020;113.548;2022-09-02T05:52:59;6.15;;;3.20;;
72404;SDS011;60395;52.020;113.548;2022-09-02T05:56:03;6.25;;;3.40;;
72404;SDS011;60395;52.020;113.548;2022-09-02T05:59:08;8.07;;;3.70;;
72404;SDS011;60395;52.020;113.548;2022-09-02T06:02:12;8.85;;;3.65;;
72404;SDS011;60395;52.020;113.548;2022-09-02T06:05:17;9.95;;;3.58;;
72404;SDS011;60395;52.020;113.548;2022-09-02T06:08:32;8.20;;;4.10;;
72404;SDS011;60395;52.020;113.548;2022-09-02T06:11:39;8.73;;;4.65;;
72404;SDS011;60395;52.020;113.548;2022-09-02T06:14:49;6.57;;;3.53;;
72404;SDS011;60395;52.020;113.548;2022-09-02T06:17:54;12.40;;;4.10;;
72404;SDS011;60395;52.020;113.548;2022-09-02T06:21:03;7.90;;;3.60;;
72404;SDS011;60395;52.020;113.548;2022-09-02T06:24:12;10.55;;;5.72;;
72404;SDS011;60395;52.020;113.548;2022-09-02T06:27:15;13.63;;;5.67;;
72404;SDS011;60395;52.020;113.548;2022-09-02T06:30:21;12.18;;;4.20;;
72404;SDS011;60395;52.020;113.548;2022-09-02T06:33:24;12.15;;;5.35;;
72404;SDS011;60395;52.020;113.548;2022-09-02T06:36:28;10.00;;;4.30;;
72404;SDS011;60395;52.020;113.548;2022-09-02T06:39:34;12.50;;;4.50;;
72404;SDS011;60395;52.020;113.548;2022-09-02T06:42:39;9.30;;;4.35;;
72404;SDS011;60395;52.020;113.548;2022-09-02T06:45:53;7.93;;;3.83;;
72404;SDS011;60395;52.020;113.548;2022-09-02T06:48:57;7.30;;;3.67;;
72404;SDS011;60395;52.020;113.548;2022-09-02T06:52:01;9.02;;;4.13;;
72404;SDS011;60395;52.020;113.548;2022-09-02T06:55:10;7.22;;;3.30;;
72404;SDS011;60395;52.020;113.548;2022-09-02T06:58:13;14.98;;;4.15;;
72404;SDS011;60395;52.020;113.548;2022-09-02T07:01:18;20.85;;;7.25;;
72404;SDS011;60395;52.020;113.548;2022-09-02T07:04:25;18.48;;;5.82;;
72404;SDS011;60395;52.020;113.548;2022-09-02T07:07:51;10.25;;;4.20;;
72404;SDS011;60395;52.020;113.548;2022-09-02T07:10:56;14.13;;;4.60;;
72404;SDS011;60395;52.020;113.548;2022-09-02T07:14:00;10.02;;;3.90;;
72404;SDS011;60395;52.020;113.548;2022-09-02T07:17:04;12.20;;;4.10;;
72404;SDS011;60395;52.020;113.548;2022-09-02T07:23:25;12.32;;;4.10;;
72404;SDS011;60395;52.020;113.548;2022-09-02T07:26:29;7.47;;;3.90;;
72404;SDS011;60395;52.020;113.548;2022-09-02T07:29:32;11.47;;;4.30;;
72404;SDS011;60395;52.020;113.548;2022-09-02T07:32:35;10.77;;;4.53;;
72404;SDS011;60395;52.020;113.548;2022-09-02T07:35:41;6.97;;;4.38;;
72404;SDS011;60395;52.020;113.548;2022-09-02T07:38:45;5.45;;;4.00;;
72404;SDS011;60395;52.020;113.548;2022-09-02T07:41:51;11.40;;;4.32;;
72404;SDS011;60395;52.020;113.548;2022-09-02T07:44:56;14.20;;;4.13;;
72404;SDS011;60395;52.020;113.548;2022-09-02T07:47:59;11.57;;;4.20;;
72404;SDS011;60395;52.020;113.548;2022-09-02T07:51:03;14.25;;;3.90;;
72404;SDS011;60395;52.020;113.548;2022-09-02T07:54:10;8.35;;;4.45;;
72404;SDS011;60395;52.020;113.548;2022-09-02T08:00:18;9.98;;;4.25;;
72404;SDS011;60395;52.020;113.548;2022-09-02T08:03:26;17.73;;;5.88;;
72404;SDS011;60395;52.020;113.548;2022-09-02T08:06:31;8.88;;;4.75;;
72404;SDS011;60395;52.020;113.548;2022-09-02T08:09:36;12.65;;;4.80;;
72404;SDS011;60395;52.020;113.548;2022-09-02T08:12:39;12.38;;;4.68;;
72404;SDS011;60395;52.020;113.548;2022-09-02T08:15:44;16.80;;;4.53;;
72404;SDS011;60395;52.020;113.548;2022-09-02T08:18:51;12.02;;;5.18;;
72404;SDS011;60395;52.020;113.548;2022-09-02T08:21:54;18.05;;;5.57;;
72404;SDS011;60395;52.020;113.548;2022-09-02T08:24:58;22.27;;;5.73;;
72404;SDS011;60395;52.020;113.548;2022-09-02T08:28:02;17.75;;;5.15;;
72404;SDS011;60395;52.020;113.548;2022-09-02T08:31:05;15.35;;;5.32;;
72404;SDS011;60395;52.020;113.548;2022-09-02T08:34:09;12.55;;;5.28;;
72404;SDS011;60395;52.020;113.548;2022-09-02T08:37:12;17.20;;;5.38;;
72404;SDS011;60395;52.020;113.548;2022-09-02T08:40:18;17.50;;;5.55;;
72404;SDS011;60395;52.020;113.548;2022-09-02T08:43:34;13.30;;;5.45;;
72404;SDS011;60395;52.020;113.548;2022-09-02T08:46:41;18.23;;;5.10;;
72404;SDS011;60395;52.020;113.548;2022-09-02T08:49:49;8.70;;;4.63;;
72404;SDS011;60395;52.020;113.548;2022-09-02T08:53:06;33.75;;;8.23;;
72404;SDS011;60395;52.020;113.548;2022-09-02T08:56:17;22.45;;;4.68;;
72404;SDS011;60395;52.020;113.548;2022-09-02T08:59:21;9.27;;;4.55;;
72404;SDS011;60395;52.020;113.548;2022-09-02T09:22:33;6.72;;;3.28;;
72404;SDS011;60395;52.020;113.548;2022-09-02T09:25:39;8.50;;;3.70;;
72404;SDS011;60395;52.020;113.548;2022-09-02T09:28:45;7.95;;;3.75;;
72404;SDS011;60395;52.020;113.548;2022-09-02T09:31:58;10.63;;;3.78;;
72404;SDS011;60395;52.020;113.548;2022-09-02T09:35:06;15.13;;;10.50;;
72404;SDS011;60395;52.020;113.548;2022-09-02T09:38:12;17.73;;;9.63;;
72404;SDS011;60395;52.020;113.548;2022-09-02T09:44:55;16.05;;;4.88;;
72404;SDS011;60395;52.020;113.548;2022-09-02T09:51:23;17.02;;;4.65;;
72404;SDS011;60395;52.020;113.548;2022-09-02T09:54:27;17.83;;;4.73;;
72404;SDS011;60395;52.020;113.548;2022-09-02T09:57:30;11.27;;;5.38;;
72404;SDS011;60395;52.020;113.548;2022-09-02T10:00:38;15.23;;;5.40;;
72404;SDS011;60395;52.020;113.548;2022-09-02T10:03:42;19.58;;;5.55;;
72404;SDS011;60395;52.020;113.548;2022-09-02T10:06:58;18.70;;;5.25;;
72404;SDS011;60395;52.020;113.548;2022-09-02T10:10:18;13.47;;;5.03;;
72404;SDS011;60395;52.020;113.548;2022-09-02T10:13:27;14.23;;;5.38;;
72404;SDS011;60395;52.020;113.548;2022-09-02T10:16:42;13.05;;;5.05;;
72404;SDS011;60395;52.020;113.548;2022-09-02T10:23:20;13.77;;;4.80;;
72404;SDS011;60395;52.020;113.548;2022-09-02T10:26:38;15.15;;;5.47;;
72404;SDS011;60395;52.020;113.548;2022-09-02T10:29:52;17.10;;;5.40;;
72404;SDS011;60395;52.020;113.548;2022-09-02T10:43:05;24.65;;;6.40;;
72404;SDS011;60395;52.020;113.548;2022-09-02T10:46:10;20.70;;;10.10;;
72404;SDS011;60395;52.020;113.548;2022-09-02T10:49:32;28.13;;;13.90;;
72404;SDS011;60395;52.020;113.548;2022-09-02T10:59:09;34.45;;;8.85;;
72404;SDS011;60395;52.020;113.548;2022-09-02T11:05:51;14.73;;;6.05;;
72404;SDS011;60395;52.020;113.548;2022-09-02T11:09:02;16.63;;;6.40;;
72404;SDS011;60395;52.020;113.548;2022-09-02T11:15:26;18.02;;;8.13;;
72404;SDS011;60395;52.020;113.548;2022-09-02T11:18:43;35.70;;;21.05;;
72404;SDS011;60395;52.020;113.548;2022-09-02T11:22:02;25.07;;;10.00;;
72404;SDS011;60395;52.020;113.548;2022-09-02T11:34:51;18.02;;;7.28;;
72404;SDS011;60395;52.020;113.548;2022-09-02T11:38:03;16.65;;;6.70;;
72404;SDS011;60395;52.020;113.548;2022-09-02T11:44:41;13.32;;;6.68;;
72404;SDS011;60395;52.020;113.548;2022-09-02T11:54:48;24.40;;;9.30;;
72404;SDS011;60395;52.020;113.548;2022-09-02T11:58:04;49.92;;;27.13;;
72404;SDS011;60395;52.020;113.548;2022-09-02T12:04:23;55.72;;;23.48;;
72404;SDS011;60395;52.020;113.548;2022-09-02T12:07:48;45.28;;;24.80;;
72404;SDS011;60395;52.020;113.548;2022-09-02T12:13:54;55.95;;;27.83;;
72404;SDS011;60395;52.020;113.548;2022-09-02T12:17:06;46.22;;;27.17;;
72404;SDS011;60395;52.020;113.548;2022-09-02T12:29:55;42.53;;;16.70;;
72404;SDS011;60395;52.020;113.548;2022-09-02T12:33:01;35.10;;;13.32;;
72404;SDS011;60395;52.020;113.548;2022-09-02T12:36:06;16.40;;;10.10;;
72404;SDS011;60395;52.020;113.548;2022-09-02T12:42:29;13.27;;;7.22;;
72404;SDS011;60395;52.020;113.548;2022-09-02T12:45:38;16.95;;;6.10;;
72404;SDS011;60395;52.020;113.548;2022-09-02T12:48:47;9.77;;;5.90;;
72404;SDS011;60395;52.020;113.548;2022-09-02T12:52:00;10.65;;;5.70;;
72404;SDS011;60395;52.020;113.548;2022-09-02T12:55:17;13.32;;;5.65;;
72404;SDS011;60395;52.020;113.548;2022-09-02T12:58:22;8.30;;;6.07;;
72404;SDS011;60395;52.020;113.548;2022-09-02T13:31:32;16.70;;;8.18;;
72404;SDS011;60395;52.020;113.548;2022-09-02T13:34:40;18.95;;;7.68;;
72404;SDS011;60395;52.020;113.548;2022-09-02T13:37:54;14.68;;;7.53;;
72404;SDS011;60395;52.020;113.548;2022-09-02T13:41:01;14.43;;;6.88;;
72404;SDS011;60395;52.020;113.548;2022-09-02T13:44:09;14.02;;;7.25;;
72404;SDS011;60395;52.020;113.548;2022-09-02T13:47:15;13.90;;;7.00;;
72404;SDS011;60395;52.020;113.548;2022-09-02T13:50:26;13.10;;;6.85;;
72404;SDS011;60395;52.020;113.548;2022-09-02T13:53:32;16.45;;;6.53;;
72404;SDS011;60395;52.020;113.548;2022-09-02T13:56:58;16.48;;;6.70;;
72404;SDS011;60395;52.020;113.548;2022-09-02T14:00:04;14.40;;;6.68;;
72404;SDS011;60395;52.020;113.548;2022-09-02T14:03:14;9.55;;;6.22;;
72404;SDS011;60395;52.020;113.548;2022-09-02T14:06:25;14.40;;;6.13;;
72404;SDS011;60395;52.020;113.548;2022-09-02T14:12:39;12.82;;;6.95;;
72404;SDS011;60395;52.020;113.548;2022-09-02T14:15:43;12.75;;;7.00;;
72404;SDS011;60395;52.020;113.548;2022-09-02T14:19:05;11.77;;;5.78;;
72404;SDS011;60395;52.020;113.548;2022-09-02T14:22:22;8.20;;;5.70;;
72404;SDS011;60395;52.020;113.548;2022-09-02T14:25:31;12.18;;;5.72;;
72404;SDS011;60395;52.020;113.548;2022-09-02T14:28:39;13.40;;;5.57;;
72404;SDS011;60395;52.020;113.548;2022-09-02T14:31:42;11.65;;;5.43;;
72404;SDS011;60395;52.020;113.548;2022-09-02T14:34:47;10.20;;;5.53;;
72404;SDS011;60395;52.020;113.548;2022-09-02T14:41:03;14.13;;;7.35;;
72404;SDS011;60395;52.020;113.548;2022-09-02T14:44:30;16.00;;;8.55;;
72404;SDS011;60395;52.020;113.548;2022-09-02T14:47:37;15.30;;;7.93;;
72404;SDS011;60395;52.020;113.548;2022-09-02T14:50:41;19.95;;;8.20;;
72404;SDS011;60395;52.020;113.548;2022-09-02T14:53:44;13.18;;;7.10;;
72404;SDS011;60395;52.020;113.548;2022-09-02T14:56:51;19.02;;;7.68;;
72404;SDS011;60395;52.020;113.548;2022-09-02T14:59:55;17.17;;;6.68;;
72404;SDS011;60395;52.020;113.548;2022-09-02T15:03:00;19.45;;;5.78;;
72404;SDS011;60395;52.020;113.548;2022-09-02T15:06:03;11.45;;;5.22;;
72404;SDS011;60395;52.020;113.548;2022-09-02T15:09:06;7.78;;;5.18;;
72404;SDS011;60395;52.020;113.548;2022-09-02T15:12:10;9.75;;;5.07;;
72404;SDS011;60395;52.020;113.548;2022-09-02T15:15:20;10.00;;;5.30;;
72404;SDS011;60395;52.020;113.548;2022-09-02T15:18:24;12.68;;;5.30;;
72404;SDS011;60395;52.020;113.548;2022-09-02T15:21:27;9.55;;;5.20;;
72404;SDS011;60395;52.020;113.548;2022-09-02T15:24:30;12.10;;;5.35;;
72404;SDS011;60395;52.020;113.548;2022-09-02T15:27:34;7.80;;;5.57;;
72404;SDS011;60395;52.020;113.548;2022-09-02T15:30:38;11.27;;;5.13;;
72404;SDS011;60395;52.020;113.548;2022-09-02T15:33:41;9.85;;;7.45;;
72404;SDS011;60395;52.020;113.548;2022-09-02T15:36:49;11.82;;;8.10;;
72404;SDS011;60395;52.020;113.548;2022-09-02T15:39:55;9.68;;;6.05;;
72404;SDS011;60395;52.020;113.548;2022-09-02T15:42:58;9.70;;;5.43;;
72404;SDS011;60395;52.020;113.548;2022-09-02T15:46:01;12.32;;;6.05;;
72404;SDS011;60395;52.020;113.548;2022-09-02T15:49:07;8.98;;;5.07;;
72404;SDS011;60395;52.020;113.548;2022-09-02T15:52:12;11.25;;;5.22;;
72404;SDS011;60395;52.020;113.548;2022-09-02T15:55:15;14.52;;;5.75;;
72404;SDS011;60395;52.020;113.548;2022-09-02T15:58:18;8.60;;;5.20;;
72404;SDS011;60395;52.020;113.548;2022-09-02T16:01:21;9.73;;;5.00;;
72404;SDS011;60395;52.020;113.548;2022-09-02T16:04:26;10.60;;;5.63;;
72404;SDS011;60395;52.020;113.548;2022-09-02T16:07:29;8.27;;;5.80;;
72404;SDS011;60395;52.020;113.548;2022-09-02T16:10:34;15.65;;;5.60;;
72404;SDS011;60395;52.020;113.548;2022-09-02T16:13:38;12.05;;;5.95;;
72404;SDS011;60395;52.020;113.548;2022-09-02T16:16:42;11.52;;;5.68;;
72404;SDS011;60395;52.020;113.548;2022-09-02T16:19:46;12.40;;;5.80;;
72404;SDS011;60395;52.020;113.548;2022-09-02T16:35:23;12.63;;;6.93;;
72404;SDS011;60395;52.020;113.548;2022-09-02T16:38:27;13.50;;;6.65;;
72404;SDS011;60395;52.020;113.548;2022-09-02T16:41:31;12.45;;;6.47;;
72404;SDS011;60395;52.020;113.548;2022-09-02T16:44:36;10.63;;;6.75;;
72404;SDS011;60395;52.020;113.548;2022-09-02T16:47:42;12.35;;;6.53;;
72404;SDS011;60395;52.020;113.548;2022-09-02T16:50:46;11.85;;;6.38;;
72404;SDS011;60395;52.020;113.548;2022-09-02T16:53:54;12.65;;;6.65;;
72404;SDS011;60395;52.020;113.548;2022-09-02T16:57:02;14.55;;;7.72;;
72404;SDS011;60395;52.020;113.548;2022-09-02T17:00:05;14.40;;;7.60;;
72404;SDS011;60395;52.020;113.548;2022-09-02T17:03:10;11.68;;;6.90;;
72404;SDS011;60395;52.020;113.548;2022-09-02T17:06:14;11.60;;;6.60;;
72404;SDS011;60395;52.020;113.548;2022-09-02T17:09:17;14.35;;;6.20;;
72404;SDS011;60395;52.020;113.548;2022-09-02T17:12:20;13.07;;;6.07;;
72404;SDS011;60395;52.020;113.548;2022-09-02T17:15:24;9.75;;;6.00;;
72404;SDS011;60395;52.020;113.548;2022-09-02T17:18:27;10.60;;;6.45;;
72404;SDS011;60395;52.020;113.548;2022-09-02T17:21:34;12.43;;;6.20;;
72404;SDS011;60395;52.020;113.548;2022-09-02T17:24:39;11.68;;;6.43;;
72404;SDS011;60395;52.020;113.548;2022-09-02T17:27:43;12.95;;;7.07;;
72404;SDS011;60395;52.020;113.548;2022-09-02T17:30:46;13.13;;;7.22;;
72404;SDS011;60395;52.020;113.548;2022-09-02T17:33:49;12.98;;;6.80;;
72404;SDS011;60395;52.020;113.548;2022-09-02T17:36:53;18.80;;;7.07;;
72404;SDS011;60395;52.020;113.548;2022-09-02T17:39:56;15.32;;;7.78;;
72404;SDS011;60395;52.020;113.548;2022-09-02T17:43:00;21.70;;;9.90;;
72404;SDS011;60395;52.020;113.548;2022-09-02T17:49:08;24.88;;;10.68;;
72404;SDS011;60395;52.020;113.548;2022-09-02T17:52:21;22.27;;;10.75;;
72404;SDS011;60395;52.020;113.548;2022-09-02T17:55:25;20.58;;;10.60;;
72404;SDS011;60395;52.020;113.548;2022-09-02T17:58:30;24.63;;;10.40;;
72404;SDS011;60395;52.020;113.548;2022-09-02T18:01:47;21.88;;;10.23;;
72404;SDS011;60395;52.020;113.548;2022-09-02T18:11:38;12.10;;;6.55;;
72404;SDS011;60395;52.020;113.548;2022-09-02T18:14:45;9.98;;;6.18;;
72404;SDS011;60395;52.020;113.548;2022-09-02T18:17:52;11.30;;;6.70;;
72404;SDS011;60395;52.020;113.548;2022-09-02T18:21:00;11.27;;;5.88;;
72404;SDS011;60395;52.020;113.548;2022-09-02T18:34:08;11.38;;;6.18;;
72404;SDS011;60395;52.020;113.548;2022-09-02T18:44:29;13.68;;;6.00;;
72404;SDS011;60395;52.020;113.548;2022-09-02T18:47:55;11.60;;;6.18;;
72404;SDS011;60395;52.020;113.548;2022-09-02T18:51:22;11.75;;;6.32;;
72404;SDS011;60395;52.020;113.548;2022-09-02T18:54:49;12.48;;;6.50;;
72404;SDS011;60395;52.020;113.548;2022-09-02T18:57:57;12.45;;;6.57;;
72404;SDS011;60395;52.020;113.548;2022-09-02T19:04:22;15.13;;;7.13;;
72404;SDS011;60395;52.020;113.548;2022-09-02T19:07:30;11.38;;;6.90;;
72404;SDS011;60395;52.020;113.548;2022-09-02T19:10:55;11.20;;;6.45;;
72404;SDS011;60395;52.020;113.548;2022-09-02T19:17:30;10.68;;;5.65;;
72404;SDS011;60395;52.020;113.548;2022-09-02T19:20:33;13.25;;;5.97;;
72404;SDS011;60395;52.020;113.548;2022-09-02T19:23:37;13.20;;;6.00;;
72404;SDS011;60395;52.020;113.548;2022-09-02T19:26:40;13.20;;;6.32;;
72404;SDS011;60395;52.020;113.548;2022-09-02T19:29:50;16.88;;;5.80;;
72404;SDS011;60395;52.020;113.548;2022-09-02T19:32:57;11.50;;;6.45;;
72404;SDS011;60395;52.020;113.548;2022-09-02T19:36:02;12.18;;;6.65;;
72404;SDS011;60395;52.020;113.548;2022-09-02T19:39:05;11.95;;;6.50;;
72404;SDS011;60395;52.020;113.548;2022-09-02T19:42:09;13.18;;;6.90;;
72404;SDS011;60395;52.020;113.548;2022-09-02T19:45:12;9.05;;;6.40;;
72404;SDS011;60395;52.020;113.548;2022-09-02T19:51:21;14.32;;;6.40;;
72404;SDS011;60395;52.020;113.548;2022-09-02T19:54:28;13.05;;;7.90;;
72404;SDS011;60395;52.020;113.548;2022-09-02T19:57:31;12.35;;;7.55;;
72404;SDS011;60395;52.020;113.548;2022-09-02T20:00:36;17.60;;;8.50;;
72404;SDS011;60395;52.020;113.548;2022-09-02T20:03:43;15.75;;;8.35;;
72404;SDS011;60395;52.020;113.548;2022-09-02T20:06:47;13.85;;;8.43;;
72404;SDS011;60395;52.020;113.548;2022-09-02T20:09:52;13.45;;;7.20;;
72404;SDS011;60395;52.020;113.548;2022-09-02T20:12:56;13.17;;;8.33;;
72404;SDS011;60395;52.020;113.548;2022-09-02T20:16:00;12.93;;;6.93;;
72404;SDS011;60395;52.020;113.548;2022-09-02T20:19:05;11.32;;;7.10;;
72404;SDS011;60395;52.020;113.548;2022-09-02T20:22:09;15.00;;;6.32;;
72404;SDS011;60395;52.020;113.548;2022-09-02T20:25:14;10.98;;;7.03;;
72404;SDS011;60395;52.020;113.548;2022-09-02T20:38:01;12.17;;;6.80;;
72404;SDS011;60395;52.020;113.548;2022-09-02T20:51:29;13.13;;;7.15;;
72404;SDS011;60395;52.020;113.548;2022-09-02T20:54:54;12.82;;;6.78;;
72404;SDS011;60395;52.020;113.548;2022-09-02T20:58:02;17.95;;;9.02;;
72404;SDS011;60395;52.020;113.548;2022-09-02T21:01:30;39.65;;;19.45;;
72404;SDS011;60395;52.020;113.548;2022-09-02T21:04:39;22.98;;;10.55;;
72404;SDS011;60395;52.020;113.548;2022-09-02T21:07:47;20.20;;;11.45;;
72404;SDS011;60395;52.020;113.548;2022-09-02T21:10:58;11.27;;;7.95;;
72404;SDS011;60395;52.020;113.548;2022-09-02T21:14:09;11.32;;;6.90;;
72404;SDS011;60395;52.020;113.548;2022-09-02T21:17:34;20.05;;;10.50;;
72404;SDS011;60395;52.020;113.548;2022-09-02T21:20:49;15.90;;;9.52;;
72404;SDS011;60395;52.020;113.548;2022-09-02T21:24:07;17.10;;;9.63;;
72404;SDS011;60395;52.020;113.548;2022-09-02T21:27:18;12.15;;;6.88;;
72404;SDS011;60395;52.020;113.548;2022-09-02T21:30:25;12.13;;;6.65;;
72404;SDS011;60395;52.020;113.548;2022-09-02T21:33:32;15.23;;;6.80;;